Time;durP1;ratioP1;P1;durP2;ratioP2;P2;SDS_P1;SDS_P2;PMS_P1;PMS_P2;Temp;Humidity;BMP_temperature;BMP_pressure;BME280_temperature;BME280_humidity;BME280_pressure;Samples;Min_cycle;Max_cycle;Signal;HPM_P1;HPM_P2
2021/12/02 00:01:09;;;;;;;3.72;1.45;;;;;;;;;;5051504;28;20203;-75
2021/12/02 00:03:37;;;;;;;7.22;1.50;;;;;;;;;;5046291;28;20203;-75
2021/12/02 00:06:04;;;;;;;5.22;1.95;;;;;;;;;;5043574;28;20205;-75
2021/12/02 00:08:31;;;;;;;8.68;1.42;;;;;;;;;;5043096;28;20209;-75
2021/12/02 00:11:00;;;;;;;8.00;1.45;;;;;;;;;;5041025;28;20203;-74
2021/12/02 00:13:29;;;;;;;1.70;1.30;;;;;;;;;;5043986;28;20568;-74
2021/12/02 00:15:59;;;;;;;5.38;1.50;;;;;;;;;;5044596;28;20206;-74
2021/12/02 00:21:02;;;;;;;6.70;1.55;;;;;;;;;;5044847;28;20267;-74
2021/12/02 00:21:19;;;;;;;7.43;2.00;;;;;;;;;;5042597;28;20217;-74
2021/12/02 00:23:49;;;;;;;4.55;1.65;;;;;;;;;;5041362;28;20561;-73
2021/12/02 00:26:18;;;;;;;4.18;1.50;;;;;;;;;;5041472;28;20236;-73
2021/12/02 00:28:46;;;;;;;3.33;1.98;;;;;;;;;;5044250;28;20203;-74
2021/12/02 00:31:16;;;;;;;3.40;1.05;;;;;;;;;;5041884;28;20218;-74
2021/12/02 00:33:45;;;;;;;6.43;1.80;;;;;;;;;;5044401;28;20310;-73
2021/12/02 00:36:13;;;;;;;5.45;1.25;;;;;;;;;;5042659;28;20221;-74
2021/12/02 00:38:41;;;;;;;4.10;1.20;;;;;;;;;;5044044;28;20236;-74
2021/12/02 00:41:10;;;;;;;3.13;1.35;;;;;;;;;;5045301;28;20229;-74
2021/12/02 00:43:39;;;;;;;1.50;1.17;;;;;;;;;;5044235;28;20692;-73
2021/12/02 00:46:08;;;;;;;4.75;1.48;;;;;;;;;;5042110;28;20203;-73
2021/12/02 00:48:36;;;;;;;3.00;1.67;;;;;;;;;;5042007;28;20220;-74
2021/12/02 00:51:04;;;;;;;5.43;1.42;;;;;;;;;;5041813;28;20202;-73
2021/12/02 00:53:32;;;;;;;3.28;1.52;;;;;;;;;;5040782;28;20205;-73
2021/12/02 00:56:02;;;;;;;4.60;1.42;;;;;;;;;;5040667;28;20734;-73
2021/12/02 00:58:29;;;;;;;4.35;1.40;;;;;;;;;;5044413;28;20210;-73
2021/12/02 01:00:58;;;;;;;4.00;1.92;;;;;;;;;;5044796;28;20225;-73
2021/12/02 01:03:27;;;;;;;2.72;1.20;;;;;;;;;;5042651;28;20604;-73
2021/12/02 01:05:54;;;;;;;2.33;1.90;;;;;;;;;;5040701;28;20746;-73
2021/12/02 01:08:21;;;;;;;2.85;1.65;;;;;;;;;;5043526;28;20202;-73
2021/12/02 01:10:49;;;;;;;5.65;1.50;;;;;;;;;;5040999;28;20198;-73
2021/12/02 01:13:17;;;;;;;3.83;1.55;;;;;;;;;;5041055;28;20219;-73
2021/12/02 01:15:44;;;;;;;2.80;1.27;;;;;;;;;;5042665;28;20201;-74
2021/12/02 01:18:12;;;;;;;3.85;1.52;;;;;;;;;;5042987;28;20202;-73
2021/12/02 01:20:40;;;;;;;5.28;1.50;;;;;;;;;;5041903;28;20673;-73
2021/12/02 01:23:08;;;;;;;2.83;1.38;;;;;;;;;;5039533;28;20207;-73
2021/12/02 01:25:36;;;;;;;1.30;1.00;;;;;;;;;;5042095;28;20697;-74
2021/12/02 01:28:03;;;;;;;2.50;1.70;;;;;;;;;;5044124;28;20678;-73
2021/12/02 01:30:31;;;;;;;3.25;1.90;;;;;;;;;;5039843;28;20582;-73
2021/12/02 01:33:00;;;;;;;3.42;1.25;;;;;;;;;;5040702;28;20223;-74
2021/12/02 01:35:29;;;;;;;2.40;1.50;;;;;;;;;;5043693;28;20201;-74
2021/12/02 01:37:56;;;;;;;2.65;1.40;;;;;;;;;;5040096;28;20202;-74
2021/12/02 01:40:24;;;;;;;1.70;1.38;;;;;;;;;;5046072;28;20195;-74
2021/12/02 01:42:52;;;;;;;3.72;1.50;;;;;;;;;;5039762;28;20578;-73
2021/12/02 01:45:22;;;;;;;4.32;1.90;;;;;;;;;;5041461;28;20677;-73
2021/12/02 01:47:52;;;;;;;3.50;1.55;;;;;;;;;;5041401;28;20199;-73
2021/12/02 01:50:21;;;;;;;5.68;1.65;;;;;;;;;;5040950;28;20194;-73
2021/12/02 01:52:50;;;;;;;3.15;1.30;;;;;;;;;;5042782;28;20523;-73
2021/12/02 01:55:18;;;;;;;3.65;1.67;;;;;;;;;;5041965;28;20214;-74
2021/12/02 01:57:50;;;;;;;5.00;1.45;;;;;;;;;;5040363;28;20213;-74
2021/12/02 02:00:19;;;;;;;3.60;1.45;;;;;;;;;;5042957;28;20232;-73
2021/12/02 02:02:46;;;;;;;6.78;1.35;;;;;;;;;;5036508;28;20264;-73
2021/12/02 02:05:15;;;;;;;2.80;1.20;;;;;;;;;;5040012;28;20204;-74
2021/12/02 02:07:56;;;;;;;4.10;1.30;;;;;;;;;;5043382;28;20778;-73
2021/12/02 02:10:23;;;;;;;3.63;1.50;;;;;;;;;;5040140;28;20582;-73
2021/12/02 02:12:50;;;;;;;3.75;1.30;;;;;;;;;;5041718;28;20229;-74
2021/12/02 02:15:18;;;;;;;4.55;1.40;;;;;;;;;;5039985;28;20586;-74
2021/12/02 02:17:52;;;;;;;3.38;1.75;;;;;;;;;;5040714;28;20202;-73
2021/12/02 02:20:23;;;;;;;4.57;1.60;;;;;;;;;;5043072;28;20645;-73
2021/12/02 02:22:50;;;;;;;5.53;1.70;;;;;;;;;;5040460;28;20209;-73
2021/12/02 02:25:19;;;;;;;3.53;1.40;;;;;;;;;;5040258;28;20288;-73
2021/12/02 02:27:46;;;;;;;4.00;1.40;;;;;;;;;;5040568;28;20203;-73
2021/12/02 02:30:13;;;;;;;6.50;1.95;;;;;;;;;;5047201;28;20202;-73
2021/12/02 02:32:40;;;;;;;9.40;2.10;;;;;;;;;;5045117;28;20225;-73
2021/12/02 02:35:07;;;;;;;4.00;2.00;;;;;;;;;;5044529;28;20764;-73
2021/12/02 02:37:37;;;;;;;3.05;1.00;;;;;;;;;;5038537;28;20410;-73
2021/12/02 02:40:06;;;;;;;3.47;1.40;;;;;;;;;;5042964;28;20211;-74
2021/12/02 02:42:33;;;;;;;4.05;1.52;;;;;;;;;;5039245;28;20205;-73
2021/12/02 02:45:01;;;;;;;7.47;1.90;;;;;;;;;;5041135;28;20202;-73
2021/12/02 02:47:28;;;;;;;7.85;2.65;;;;;;;;;;5041826;28;20831;-73
2021/12/02 02:49:55;;;;;;;3.05;1.30;;;;;;;;;;5043497;28;20213;-73
2021/12/02 02:52:23;;;;;;;5.15;1.70;;;;;;;;;;5044097;28;20207;-73
2021/12/02 02:54:51;;;;;;;4.13;1.83;;;;;;;;;;5043864;28;20198;-73
2021/12/02 02:57:21;;;;;;;2.28;1.55;;;;;;;;;;5042115;28;20214;-72
2021/12/02 03:00:01;;;;;;;3.72;1.55;;;;;;;;;;5051462;28;20808;-73
2021/12/02 03:02:33;;;;;;;2.10;1.25;;;;;;;;;;5047777;28;20289;-73
2021/12/02 03:05:08;;;;;;;4.63;2.38;;;;;;;;;;5044816;28;20202;-73
2021/12/02 03:07:40;;;;;;;3.35;1.00;;;;;;;;;;5044376;28;20205;-73
2021/12/02 03:10:14;;;;;;;5.05;1.40;;;;;;;;;;5046411;28;20202;-73
2021/12/02 03:12:51;;;;;;;4.60;1.75;;;;;;;;;;5043094;28;20709;-73
2021/12/02 03:18:05;;;;;;;1.63;1.13;;;;;;;;;;5035448;28;20236;-73
2021/12/02 03:23:48;;;;;;;2.95;1.20;;;;;;;;;;5063408;28;20665;-74
2021/12/02 03:26:16;;;;;;;3.08;1.30;;;;;;;;;;5070533;28;20251;-74
2021/12/02 03:28:43;;;;;;;5.00;1.80;;;;;;;;;;5065988;28;20198;-74
2021/12/02 03:31:10;;;;;;;2.25;1.35;;;;;;;;;;5065073;28;20210;-74
2021/12/02 03:33:37;;;;;;;3.17;1.20;;;;;;;;;;5069958;28;20210;-74
2021/12/02 03:36:05;;;;;;;5.90;1.70;;;;;;;;;;5059446;28;20290;-73
2021/12/02 03:38:32;;;;;;;7.75;3.17;;;;;;;;;;5066998;28;20198;-74
2021/12/02 03:40:59;;;;;;;2.70;1.83;;;;;;;;;;5061638;28;20191;-73
2021/12/02 03:43:28;;;;;;;2.78;1.92;;;;;;;;;;5056892;28;20198;-72
2021/12/02 03:45:55;;;;;;;2.70;1.63;;;;;;;;;;5055702;28;20253;-75
2021/12/02 03:48:22;;;;;;;3.90;1.40;;;;;;;;;;5062578;28;20459;-73
2021/12/02 03:50:49;;;;;;;6.47;1.85;;;;;;;;;;5053554;28;20570;-73
2021/12/02 03:53:16;;;;;;;3.67;1.60;;;;;;;;;;5066849;28;20681;-73
2021/12/02 03:55:43;;;;;;;2.15;1.50;;;;;;;;;;5060470;28;20642;-73
2021/12/02 03:58:10;;;;;;;3.30;1.85;;;;;;;;;;5073557;28;20378;-73
2021/12/02 04:00:39;;;;;;;2.75;1.33;;;;;;;;;;5070122;28;20222;-74
2021/12/02 04:03:06;;;;;;;1.85;1.23;;;;;;;;;;5066112;28;20202;-73
2021/12/02 04:05:33;;;;;;;1.50;1.15;;;;;;;;;;5055501;28;20198;-73
2021/12/02 04:08:00;;;;;;;7.40;2.35;;;;;;;;;;5052715;28;20665;-73
2021/12/02 04:10:27;;;;;;;1.23;1.13;;;;;;;;;;5061239;28;20206;-74
2021/12/02 04:13:03;;;;;;;1.80;1.10;;;;;;;;;;5053654;28;20218;-72
2021/12/02 04:15:33;;;;;;;4.35;0.95;;;;;;;;;;5066871;28;20194;-73
2021/12/02 04:18:01;;;;;;;2.55;1.10;;;;;;;;;;5056428;28;20199;-73
2021/12/02 04:20:28;;;;;;;2.88;1.10;;;;;;;;;;5065960;28;20201;-74
2021/12/02 04:22:57;;;;;;;4.50;2.20;;;;;;;;;;5060099;28;20205;-73
2021/12/02 04:25:24;;;;;;;1.30;1.00;;;;;;;;;;5059803;28;20194;-73
2021/12/02 04:27:51;;;;;;;2.20;0.95;;;;;;;;;;5057667;28;20209;-73
2021/12/02 04:30:19;;;;;;;1.55;0.90;;;;;;;;;;5062243;28;20194;-72
2021/12/02 04:32:47;;;;;;;3.28;1.20;;;;;;;;;;5055492;28;20237;-73
2021/12/02 04:35:16;;;;;;;1.30;1.17;;;;;;;;;;5056663;28;20200;-73
2021/12/02 04:37:44;;;;;;;1.40;1.10;;;;;;;;;;5061998;28;20201;-73
2021/12/02 04:40:14;;;;;;;3.45;1.10;;;;;;;;;;5070078;28;20194;-73
2021/12/02 04:42:41;;;;;;;2.58;1.05;;;;;;;;;;5055365;28;20242;-73
2021/12/02 04:45:09;;;;;;;1.30;1.15;;;;;;;;;;5059016;28;20198;-72
2021/12/02 04:47:36;;;;;;;2.25;1.15;;;;;;;;;;5057743;28;20210;-73
2021/12/02 04:50:04;;;;;;;2.20;0.90;;;;;;;;;;5064384;28;20202;-73
2021/12/02 04:52:32;;;;;;;3.05;1.50;;;;;;;;;;5064277;28;20202;-73
2021/12/02 04:54:59;;;;;;;4.57;1.77;;;;;;;;;;5063301;28;20208;-72
2021/12/02 04:57:26;;;;;;;2.95;1.23;;;;;;;;;;5060477;28;20674;-73
2021/12/02 04:59:54;;;;;;;4.68;1.42;;;;;;;;;;5064356;28;20578;-73
2021/12/02 05:02:21;;;;;;;7.57;1.67;;;;;;;;;;5056568;28;20203;-73
2021/12/02 05:04:48;;;;;;;1.33;0.98;;;;;;;;;;5058662;28;20195;-73
2021/12/02 05:07:15;;;;;;;1.35;1.05;;;;;;;;;;5057495;28;20195;-73
2021/12/02 05:09:43;;;;;;;1.70;0.95;;;;;;;;;;5061729;28;20214;-73
2021/12/02 05:12:10;;;;;;;2.38;1.33;;;;;;;;;;5051661;28;20203;-75
2021/12/02 05:14:37;;;;;;;1.42;1.20;;;;;;;;;;5058973;28;20222;-73
2021/12/02 05:17:04;;;;;;;3.40;1.40;;;;;;;;;;5055797;28;20195;-74
2021/12/02 05:19:31;;;;;;;1.70;1.10;;;;;;;;;;5063612;28;20202;-73
2021/12/02 05:21:59;;;;;;;1.73;1.10;;;;;;;;;;5060886;28;20199;-73
2021/12/02 05:24:26;;;;;;;2.60;1.00;;;;;;;;;;5060105;28;20198;-73
2021/12/02 05:26:54;;;;;;;1.10;0.90;;;;;;;;;;5054101;28;20207;-73
2021/12/02 05:29:21;;;;;;;5.10;1.15;;;;;;;;;;5061262;28;20562;-73
2021/12/02 05:31:48;;;;;;;1.20;1.00;;;;;;;;;;5056155;28;20677;-73
2021/12/02 05:34:15;;;;;;;1.92;1.40;;;;;;;;;;5055196;28;20222;-73
2021/12/02 05:36:42;;;;;;;2.38;1.40;;;;;;;;;;5054709;28;20650;-73
2021/12/02 05:39:09;;;;;;;2.42;1.30;;;;;;;;;;5052691;28;20204;-74
2021/12/02 05:41:36;;;;;;;2.10;1.40;;;;;;;;;;5063490;28;20203;-73
2021/12/02 05:44:05;;;;;;;1.40;1.00;;;;;;;;;;5060316;28;20658;-74
2021/12/02 05:46:32;;;;;;;1.90;1.23;;;;;;;;;;5061416;28;20195;-73
2021/12/02 05:49:00;;;;;;;2.65;1.48;;;;;;;;;;5054681;28;20198;-74
2021/12/02 05:51:27;;;;;;;1.30;1.10;;;;;;;;;;5060718;28;20201;-73
2021/12/02 05:53:54;;;;;;;2.60;1.30;;;;;;;;;;5053981;28;20222;-74
2021/12/02 05:56:21;;;;;;;1.83;1.10;;;;;;;;;;5058892;28;20207;-73
2021/12/02 05:58:48;;;;;;;2.53;1.65;;;;;;;;;;5062686;28;20642;-73
2021/12/02 06:01:17;;;;;;;2.55;1.75;;;;;;;;;;5071692;28;20202;-74
2021/12/02 06:03:44;;;;;;;2.40;1.52;;;;;;;;;;5062089;28;20199;-74
2021/12/02 06:06:11;;;;;;;2.15;1.35;;;;;;;;;;5060496;28;20199;-73
2021/12/02 06:08:38;;;;;;;2.25;1.50;;;;;;;;;;5051088;28;20195;-73
2021/12/02 06:11:05;;;;;;;1.60;1.20;;;;;;;;;;5060530;28;20281;-73
2021/12/02 06:13:32;;;;;;;2.05;1.63;;;;;;;;;;5056637;28;20218;-74
2021/12/02 06:15:59;;;;;;;1.67;1.58;;;;;;;;;;5062425;28;20653;-73
2021/12/02 06:18:27;;;;;;;1.17;1.08;;;;;;;;;;5060762;28;20198;-73
2021/12/02 06:20:54;;;;;;;3.65;1.70;;;;;;;;;;5058710;28;20658;-73
2021/12/02 06:23:22;;;;;;;1.40;1.20;;;;;;;;;;5051869;28;20681;-73
2021/12/02 06:25:49;;;;;;;1.90;1.40;;;;;;;;;;5061677;28;20195;-73
2021/12/02 06:28:17;;;;;;;3.17;1.88;;;;;;;;;;5061460;28;20202;-74
2021/12/02 06:30:44;;;;;;;1.85;1.45;;;;;;;;;;5056009;28;20198;-73
2021/12/02 06:33:12;;;;;;;1.70;1.30;;;;;;;;;;5056694;28;20856;-73
2021/12/02 06:35:41;;;;;;;1.98;1.25;;;;;;;;;;5064268;28;20201;-73
2021/12/02 06:38:08;;;;;;;2.90;1.23;;;;;;;;;;5067767;28;20218;-74
2021/12/02 06:40:37;;;;;;;1.55;1.45;;;;;;;;;;5070092;28;20194;-73
2021/12/02 06:43:04;;;;;;;3.85;1.65;;;;;;;;;;5055134;28;20194;-73
2021/12/02 06:45:31;;;;;;;2.28;1.67;;;;;;;;;;5055906;28;20285;-74
2021/12/02 06:48:00;;;;;;;1.85;1.70;;;;;;;;;;5066515;28;20202;-73
2021/12/02 06:50:28;;;;;;;1.65;1.48;;;;;;;;;;5059919;28;20207;-73
2021/12/02 06:52:56;;;;;;;1.63;1.52;;;;;;;;;;5057326;28;20206;-74
2021/12/02 06:55:23;;;;;;;1.92;1.80;;;;;;;;;;5068420;28;20195;-74
2021/12/02 06:57:51;;;;;;;8.70;1.50;;;;;;;;;;5059803;28;20201;-74
2021/12/02 07:00:19;;;;;;;1.85;1.38;;;;;;;;;;5060480;28;20210;-73
2021/12/02 07:02:46;;;;;;;1.90;1.63;;;;;;;;;;5066838;28;20191;-73
2021/12/02 07:05:14;;;;;;;3.38;1.33;;;;;;;;;;5059143;28;20206;-73
2021/12/02 07:07:42;;;;;;;2.72;1.73;;;;;;;;;;5059612;28;20198;-73
2021/12/02 07:10:11;;;;;;;1.20;1.02;;;;;;;;;;5063490;28;20286;-74
2021/12/02 07:12:39;;;;;;;1.58;1.20;;;;;;;;;;5058173;28;20564;-72
2021/12/02 07:15:10;;;;;;;4.50;1.35;;;;;;;;;;5066898;28;20230;-72
2021/12/02 07:17:38;;;;;;;1.73;1.63;;;;;;;;;;5070717;28;20210;-72
2021/12/02 07:20:05;;;;;;;4.10;1.40;;;;;;;;;;5067640;28;20289;-72
2021/12/02 07:22:32;;;;;;;1.52;1.42;;;;;;;;;;5056847;28;20191;-73
2021/12/02 07:24:59;;;;;;;1.35;1.20;;;;;;;;;;5063947;28;20183;-73
2021/12/02 07:27:28;;;;;;;1.90;1.60;;;;;;;;;;5055476;28;20218;-72
2021/12/02 07:29:55;;;;;;;1.90;1.15;;;;;;;;;;5057963;28;20570;-73
2021/12/02 07:32:22;;;;;;;2.25;1.63;;;;;;;;;;5059861;28;20203;-73
2021/12/02 07:34:50;;;;;;;2.95;1.40;;;;;;;;;;5064736;28;20570;-73
2021/12/02 07:37:17;;;;;;;2.08;1.13;;;;;;;;;;5062168;28;20201;-73
2021/12/02 07:39:45;;;;;;;1.70;1.60;;;;;;;;;;5058591;28;20194;-72
2021/12/02 07:42:12;;;;;;;1.60;1.50;;;;;;;;;;5058541;28;20195;-72
2021/12/02 07:44:40;;;;;;;6.55;1.88;;;;;;;;;;5067385;28;20195;-72
2021/12/02 07:47:08;;;;;;;1.98;1.38;;;;;;;;;;5067322;28;20225;-74
2021/12/02 07:49:35;;;;;;;2.45;1.40;;;;;;;;;;5071127;28;20724;-72
2021/12/02 07:52:03;;;;;;;1.90;1.42;;;;;;;;;;5064671;28;20553;-72
2021/12/02 07:54:32;;;;;;;3.70;1.35;;;;;;;;;;5060916;28;20221;-72
2021/12/02 07:57:00;;;;;;;1.48;1.20;;;;;;;;;;5064991;28;20202;-72
2021/12/02 07:59:28;;;;;;;1.95;1.40;;;;;;;;;;5055376;28;20222;-72
2021/12/02 08:02:00;;;;;;;2.55;1.20;;;;;;;;;;5063714;28;20209;-73
2021/12/02 08:04:28;;;;;;;1.20;1.10;;;;;;;;;;5053880;28;20285;-72
2021/12/02 08:06:55;;;;;;;2.30;1.40;;;;;;;;;;5056392;28;20666;-73
2021/12/02 08:09:22;;;;;;;2.65;1.40;;;;;;;;;;5069196;28;20195;-72
2021/12/02 08:11:49;;;;;;;2.25;1.40;;;;;;;;;;5069344;28;20196;-72
2021/12/02 08:14:17;;;;;;;1.40;1.30;;;;;;;;;;5069356;28;20573;-74
2021/12/02 08:16:44;;;;;;;2.58;1.25;;;;;;;;;;5053283;28;20191;-71
2021/12/02 08:19:13;;;;;;;1.80;1.42;;;;;;;;;;5060110;28;20206;-75
2021/12/02 08:21:40;;;;;;;1.30;1.20;;;;;;;;;;5062069;28;20194;-77
2021/12/02 08:24:08;;;;;;;1.40;1.30;;;;;;;;;;5055253;28;20198;-76
2021/12/02 08:26:35;;;;;;;1.65;1.40;;;;;;;;;;5053320;28;20195;-76
2021/12/02 08:29:02;;;;;;;1.98;1.13;;;;;;;;;;5062186;28;20207;-75
2021/12/02 08:31:29;;;;;;;1.60;1.50;;;;;;;;;;5064803;28;20198;-75
2021/12/02 08:33:56;;;;;;;2.70;1.13;;;;;;;;;;5066383;28;20223;-76
2021/12/02 08:36:28;;;;;;;4.70;1.10;;;;;;;;;;5064218;28;20195;-75
2021/12/02 08:38:57;;;;;;;1.35;1.25;;;;;;;;;;5056647;28;20612;-75
2021/12/02 08:41:24;;;;;;;1.38;1.25;;;;;;;;;;5062000;28;20648;-77
2021/12/02 08:43:52;;;;;;;1.35;1.20;;;;;;;;;;5064622;28;20194;-78
2021/12/02 08:46:21;;;;;;;1.55;1.20;;;;;;;;;;5071054;28;20207;-77
2021/12/02 08:48:50;;;;;;;2.70;1.52;;;;;;;;;;5063590;28;20210;-76
2021/12/02 08:51:18;;;;;;;2.95;1.52;;;;;;;;;;5061440;28;20214;-77
2021/12/02 08:53:46;;;;;;;1.40;1.30;;;;;;;;;;5052445;28;20194;-77
2021/12/02 08:56:13;;;;;;;1.30;1.00;;;;;;;;;;5052641;28;20680;-78
2021/12/02 08:58:40;;;;;;;2.10;0.90;;;;;;;;;;5067378;28;20190;-76
2021/12/02 09:01:07;;;;;;;1.23;1.13;;;;;;;;;;5055417;28;20297;-77
2021/12/02 09:03:36;;;;;;;2.65;1.33;;;;;;;;;;5057311;28;20194;-76
2021/12/02 09:06:08;;;;;;;2.15;1.38;;;;;;;;;;5052266;28;20294;-76
2021/12/02 09:08:35;;;;;;;1.73;1.27;;;;;;;;;;5060241;28;20285;-79
2021/12/02 09:11:04;;;;;;;1.30;1.15;;;;;;;;;;5060380;28;20202;-76
2021/12/02 09:13:31;;;;;;;1.90;1.30;;;;;;;;;;5060781;28;20197;-77
2021/12/02 09:15:58;;;;;;;1.13;1.00;;;;;;;;;;5061713;28;20574;-76
2021/12/02 09:18:26;;;;;;;2.05;1.10;;;;;;;;;;5065098;28;20564;-77
2021/12/02 09:20:53;;;;;;;1.80;1.10;;;;;;;;;;5052554;28;20203;-78
2021/12/02 09:23:20;;;;;;;1.45;1.30;;;;;;;;;;5059071;28;20202;-76
2021/12/02 09:25:47;;;;;;;1.33;1.23;;;;;;;;;;5055642;28;20194;-77
2021/12/02 09:28:16;;;;;;;2.05;1.10;;;;;;;;;;5068296;28;20202;-76
2021/12/02 09:30:43;;;;;;;1.25;0.98;;;;;;;;;;5051459;28;20226;-76
2021/12/02 09:33:10;;;;;;;1.42;1.33;;;;;;;;;;5055381;28;20202;-76
2021/12/02 09:35:37;;;;;;;1.20;1.10;;;;;;;;;;5055549;28;20225;-76
2021/12/02 09:38:06;;;;;;;1.10;1.00;;;;;;;;;;5053739;28;20325;-76
2021/12/02 09:40:33;;;;;;;1.30;1.05;;;;;;;;;;5063983;28;20198;-76
2021/12/02 09:43:00;;;;;;;1.15;0.98;;;;;;;;;;5051954;28;20203;-77
2021/12/02 09:45:28;;;;;;;1.23;1.00;;;;;;;;;;5053262;28;20645;-76
2021/12/02 09:47:56;;;;;;;1.15;1.00;;;;;;;;;;5058128;28;20198;-77
2021/12/02 09:50:28;;;;;;;1.10;0.90;;;;;;;;;;5051304;28;20206;-74
2021/12/02 09:52:59;;;;;;;1.45;1.10;;;;;;;;;;5048431;28;20211;-75
2021/12/02 09:55:34;;;;;;;1.20;1.00;;;;;;;;;;5055905;28;20235;-75
2021/12/02 09:58:04;;;;;;;1.40;1.10;;;;;;;;;;5051109;28;20206;-75
2021/12/02 10:00:39;;;;;;;2.00;1.17;;;;;;;;;;5054285;28;20210;-75
2021/12/02 10:03:18;;;;;;;1.30;1.17;;;;;;;;;;5060654;28;20711;-76
2021/12/02 10:05:54;;;;;;;1.80;1.08;;;;;;;;;;5058929;28;20197;-75
2021/12/02 10:08:23;;;;;;;2.03;1.00;;;;;;;;;;5049601;28;20230;-75
2021/12/02 10:10:53;;;;;;;1.02;0.93;;;;;;;;;;5054822;28;20194;-76
2021/12/02 10:13:29;;;;;;;1.30;1.15;;;;;;;;;;5063365;28;20249;-75
2021/12/02 10:16:05;;;;;;;1.33;1.17;;;;;;;;;;5054554;28;20232;-76
2021/12/02 10:18:36;;;;;;;5.63;1.80;;;;;;;;;;5057419;28;20194;-75
2021/12/02 10:21:16;;;;;;;1.25;1.15;;;;;;;;;;5056102;28;20190;-76
2021/12/02 10:23:47;;;;;;;1.42;0.90;;;;;;;;;;5056673;28;20565;-75
2021/12/02 10:26:18;;;;;;;1.90;0.90;;;;;;;;;;5053238;28;20191;-76
2021/12/02 10:28:45;;;;;;;1.48;1.15;;;;;;;;;;5053668;28;20201;-75
2021/12/02 10:31:18;;;;;;;1.35;1.00;;;;;;;;;;5058504;28;20202;-75
2021/12/02 10:33:47;;;;;;;1.50;0.85;;;;;;;;;;5054396;28;20194;-76
2021/12/02 10:36:23;;;;;;;1.08;0.93;;;;;;;;;;5060363;28;20581;-76
2021/12/02 10:38:50;;;;;;;2.50;0.90;;;;;;;;;;5054491;28;20221;-75
2021/12/02 10:41:20;;;;;;;1.00;0.90;;;;;;;;;;5055883;28;20221;-75
2021/12/02 10:44:18;;;;;;;2.20;1.00;;;;;;;;;;5054257;28;20211;-76
2021/12/02 10:47:01;;;;;;;2.55;1.00;;;;;;;;;;5009685;28;20211;-76
2021/12/02 10:49:30;;;;;;;1.02;0.90;;;;;;;;;;5044822;28;20758;-76
2021/12/02 10:51:58;;;;;;;2.20;1.25;;;;;;;;;;5050333;28;20199;-75
2021/12/02 10:54:27;;;;;;;0.90;0.80;;;;;;;;;;5052370;28;20718;-76
2021/12/02 10:56:55;;;;;;;3.58;1.30;;;;;;;;;;5063405;28;20203;-75
2021/12/02 10:59:26;;;;;;;1.10;1.00;;;;;;;;;;5050460;28;20709;-75
2021/12/02 11:01:53;;;;;;;1.30;1.20;;;;;;;;;;5061846;28;20199;-76
2021/12/02 11:04:22;;;;;;;2.65;1.20;;;;;;;;;;5051549;28;20190;-75
2021/12/02 11:06:55;;;;;;;2.47;0.90;;;;;;;;;;5050598;28;20198;-76
2021/12/02 11:09:26;;;;;;;4.68;1.10;;;;;;;;;;5054161;28;20268;-75
2021/12/02 11:12:07;;;;;;;1.10;0.88;;;;;;;;;;5056421;28;20487;-74
2021/12/02 11:14:34;;;;;;;2.42;1.55;;;;;;;;;;5056799;28;20202;-75
2021/12/02 11:17:11;;;;;;;2.00;1.38;;;;;;;;;;5056857;28;20213;-76
2021/12/02 11:19:40;;;;;;;1.08;0.98;;;;;;;;;;5053887;28;20208;-76
2021/12/02 11:22:09;;;;;;;1.92;1.25;;;;;;;;;;5058505;28;20206;-75
2021/12/02 11:24:36;;;;;;;2.22;1.13;;;;;;;;;;5066581;28;20612;-75
2021/12/02 11:27:07;;;;;;;1.17;1.05;;;;;;;;;;5065526;28;20593;-77
2021/12/02 11:29:52;;;;;;;1.15;1.00;;;;;;;;;;5055573;28;20284;-75
2021/12/02 11:32:28;;;;;;;3.00;1.27;;;;;;;;;;5053227;28;20213;-75
2021/12/02 11:35:05;;;;;;;1.20;1.00;;;;;;;;;;5064304;28;20221;-75
2021/12/02 11:37:33;;;;;;;4.40;1.42;;;;;;;;;;5062153;28;20194;-75
2021/12/02 11:40:03;;;;;;;2.33;1.13;;;;;;;;;;5059304;28;20198;-75
2021/12/02 11:42:30;;;;;;;1.10;0.90;;;;;;;;;;5059191;28;20214;-76
2021/12/02 11:44:57;;;;;;;1.40;1.15;;;;;;;;;;5053351;28;20198;-75
2021/12/02 11:47:24;;;;;;;5.75;0.90;;;;;;;;;;5054397;28;20517;-76
2021/12/02 11:49:51;;;;;;;1.65;0.98;;;;;;;;;;5056997;28;20202;-75
2021/12/02 11:52:20;;;;;;;1.45;1.17;;;;;;;;;;5055953;28;20612;-75
2021/12/02 11:54:47;;;;;;;1.63;0.90;;;;;;;;;;5059159;28;20239;-75
2021/12/02 11:57:14;;;;;;;3.15;1.52;;;;;;;;;;5069317;28;20210;-76
2021/12/02 11:59:41;;;;;;;1.85;1.25;;;;;;;;;;5056929;28;20233;-75
2021/12/02 12:02:08;;;;;;;1.17;0.90;;;;;;;;;;5056981;28;20195;-75
2021/12/02 12:04:38;;;;;;;1.45;1.10;;;;;;;;;;5059913;28;20202;-75
2021/12/02 12:07:12;;;;;;;1.00;0.90;;;;;;;;;;5062857;28;20198;-75
2021/12/02 12:09:40;;;;;;;2.30;1.30;;;;;;;;;;5059589;28;20325;-75
2021/12/02 12:12:10;;;;;;;0.90;0.80;;;;;;;;;;5058132;28;20199;-75
2021/12/02 12:14:38;;;;;;;1.58;0.90;;;;;;;;;;5060369;28;20206;-74
2021/12/02 12:17:06;;;;;;;1.00;0.90;;;;;;;;;;5058355;28;20206;-75
2021/12/02 12:19:39;;;;;;;1.30;0.90;;;;;;;;;;5057677;28;20570;-75
2021/12/02 12:22:08;;;;;;;1.65;0.80;;;;;;;;;;5053138;28;20203;-76
2021/12/02 12:24:43;;;;;;;1.10;0.93;;;;;;;;;;5057639;28;20198;-74
2021/12/02 12:27:11;;;;;;;1.70;1.00;;;;;;;;;;5068847;28;20198;-76
2021/12/02 12:29:38;;;;;;;1.50;0.95;;;;;;;;;;5052827;28;20198;-75
2021/12/02 12:32:39;;;;;;;1.50;0.93;;;;;;;;;;5063640;28;20198;-75
2021/12/02 12:35:09;;;;;;;1.33;0.90;;;;;;;;;;5052914;28;20215;-75
2021/12/02 12:38:02;;;;;;;1.30;0.90;;;;;;;;;;5055470;28;20202;-75
2021/12/02 12:40:41;;;;;;;1.10;0.90;;;;;;;;;;5052536;28;20562;-76
2021/12/02 12:43:17;;;;;;;2.25;1.50;;;;;;;;;;5064321;28;20626;-74
2021/12/02 12:45:44;;;;;;;1.00;0.90;;;;;;;;;;5067511;28;20217;-74
2021/12/02 12:48:13;;;;;;;1.30;1.13;;;;;;;;;;5057407;28;20194;-75
2021/12/02 12:50:41;;;;;;;1.23;1.10;;;;;;;;;;5069898;28;20210;-75
2021/12/02 12:53:20;;;;;;;1.42;1.00;;;;;;;;;;5064119;28;20209;-76
2021/12/02 12:56:02;;;;;;;1.52;0.98;;;;;;;;;;5056488;28;20594;-76
2021/12/02 12:58:31;;;;;;;1.10;0.88;;;;;;;;;;5059371;28;20206;-75
2021/12/02 13:00:59;;;;;;;1.20;1.00;;;;;;;;;;5057969;28;20225;-75
2021/12/02 13:03:29;;;;;;;1.50;1.10;;;;;;;;;;5058963;28;20195;-75
2021/12/02 13:05:59;;;;;;;4.43;1.38;;;;;;;;;;5063087;28;20228;-75
2021/12/02 13:08:30;;;;;;;1.70;0.88;;;;;;;;;;5054873;28;20249;-75
2021/12/02 13:10:59;;;;;;;1.30;1.05;;;;;;;;;;5052301;28;20606;-75
2021/12/02 13:13:27;;;;;;;1.27;1.00;;;;;;;;;;5052556;28;20230;-75
2021/12/02 13:16:08;;;;;;;1.38;1.00;;;;;;;;;;5058013;28;20253;-75
2021/12/02 13:18:37;;;;;;;1.10;0.90;;;;;;;;;;5054656;28;20195;-75
2021/12/02 13:21:21;;;;;;;1.20;1.10;;;;;;;;;;5060599;28;20724;-75
2021/12/02 13:23:57;;;;;;;1.35;1.05;;;;;;;;;;5051868;28;20205;-75
2021/12/02 13:26:26;;;;;;;1.10;1.00;;;;;;;;;;5058013;28;20568;-73
2021/12/02 13:28:54;;;;;;;1.25;1.15;;;;;;;;;;5062955;28;20202;-75
2021/12/02 13:31:24;;;;;;;1.13;0.90;;;;;;;;;;5057262;28;20226;-76
2021/12/02 13:33:53;;;;;;;1.15;0.85;;;;;;;;;;5056738;28;20205;-76
2021/12/02 13:36:21;;;;;;;1.65;1.00;;;;;;;;;;5064058;28;20685;-75
2021/12/02 13:39:16;;;;;;;0.93;0.80;;;;;;;;;;5059418;28;20198;-76
2021/12/02 13:41:46;;;;;;;1.60;1.00;;;;;;;;;;5046003;28;20232;-76
2021/12/02 13:44:17;;;;;;;2.25;0.98;;;;;;;;;;5060152;28;20202;-76
2021/12/02 13:46:53;;;;;;;0.90;0.80;;;;;;;;;;5068555;28;20186;-76
2021/12/02 13:49:21;;;;;;;1.23;1.13;;;;;;;;;;5065909;28;20208;-76
2021/12/02 13:54:35;;;;;;;1.13;0.80;;;;;;;;;;5058733;28;20677;-75
2021/12/02 13:57:02;;;;;;;1.10;0.90;;;;;;;;;;5061734;28;20221;-75
2021/12/02 13:59:39;;;;;;;1.35;1.25;;;;;;;;;;5051638;28;20743;-76
2021/12/02 14:02:08;;;;;;;4.05;1.00;;;;;;;;;;5052924;28;20205;-76
2021/12/02 14:04:44;;;;;;;1.55;1.10;;;;;;;;;;5066659;28;20208;-76
2021/12/02 14:07:12;;;;;;;1.30;1.00;;;;;;;;;;5054333;28;20190;-75
2021/12/02 14:09:47;;;;;;;2.65;1.13;;;;;;;;;;5063991;28;20203;-75
2021/12/02 14:12:14;;;;;;;1.10;0.90;;;;;;;;;;5053349;28;20190;-75
2021/12/02 14:14:55;;;;;;;2.55;1.10;;;;;;;;;;5061035;28;20566;-75
2021/12/02 14:17:23;;;;;;;1.40;0.90;;;;;;;;;;5057425;28;20218;-75
2021/12/02 14:20:05;;;;;;;1.25;0.93;;;;;;;;;;5052453;28;20203;-74
2021/12/02 14:22:33;;;;;;;1.98;0.98;;;;;;;;;;5052349;28;20206;-76
2021/12/02 14:25:00;;;;;;;1.45;1.05;;;;;;;;;;5054539;28;20207;-77
2021/12/02 14:27:27;;;;;;;1.20;1.10;;;;;;;;;;5064551;28;20205;-75
2021/12/02 14:30:09;;;;;;;1.35;1.20;;;;;;;;;;5049846;28;20199;-75
2021/12/02 14:32:39;;;;;;;1.70;0.93;;;;;;;;;;5052354;28;20688;-75
2021/12/02 14:35:09;;;;;;;1.33;1.10;;;;;;;;;;5060097;28;20658;-76
2021/12/02 14:37:37;;;;;;;2.85;1.02;;;;;;;;;;5050380;28;20222;-75
2021/12/02 14:40:04;;;;;;;1.48;1.15;;;;;;;;;;5053575;28;20702;-75
2021/12/02 14:42:31;;;;;;;1.20;1.08;;;;;;;;;;5052391;28;20201;-75
2021/12/02 14:44:58;;;;;;;1.67;1.23;;;;;;;;;;5063440;28;20561;-75
2021/12/02 14:47:25;;;;;;;1.42;1.33;;;;;;;;;;5055181;28;20191;-75
2021/12/02 14:50:07;;;;;;;1.58;1.20;;;;;;;;;;5054238;28;20205;-74
2021/12/02 14:52:35;;;;;;;1.30;1.20;;;;;;;;;;5059041;28;20482;-76
2021/12/02 14:55:07;;;;;;;1.30;1.20;;;;;;;;;;5059030;28;20281;-75
2021/12/02 14:57:34;;;;;;;1.52;1.08;;;;;;;;;;5062487;28;20229;-75
2021/12/02 15:00:03;;;;;;;1.20;1.10;;;;;;;;;;5055281;28;20225;-75
2021/12/02 15:02:34;;;;;;;1.52;1.08;;;;;;;;;;5059299;28;20211;-75
2021/12/02 15:05:03;;;;;;;1.20;1.00;;;;;;;;;;5055165;28;20203;-75